New London, WI (54961)

4:52 PM CDT on July 27, 2016 (GMT -0500)
East End, School Road | | Change Station

Elev 880 ft 44.29 °N, 88.52 °W | Updated 7 seconds ago

Mostly Cloudy
Mostly Cloudy
79.1 °F
Feels Like 82 °F
N
3.0
Wind Variable Wind from South
Gusts 7.0 mph

Today
High -- | Low -- °F
--% Chance of Precip.
Yesterday
High -- | Low -- °F
Precip. -- in
Pressure 29.95 in
Visibility 10.0 miles
Clouds Mostly Cloudy 5000 ft
Mostly Cloudy 9000 ft
Heat Index 82 °F
Dew Point 70 °F
Humidity 73%
Rainfall 0.02 in
Snow Depth Not available.
5:37 AM 8:25 PM
Last Quarter, 39% visible
METAR KATW 272145Z VRB05KT 10SM BKN050 BKN090 26/17 A2995
Pressure 29.95 in
Visibility 10.0 miles
Clouds Mostly Cloudy 5000 ft
Mostly Cloudy 9000 ft
Heat Index 82 °F
Dew Point 70 °F
Humidity 73%
Rainfall 0.02 in
Snow Depth Not available.
5:37 AM 8:25 PM
Last Quarter, 39% visible
METAR KATW 272145Z VRB05KT 10SM BKN050 BKN090 26/17 A2995

10-Day Weather Forecast

Almanac

Astronomy

Jul. 27, 2016 Rise Set
Actual Time
Civil Twilight
Nautical Twilight
Astronomical Twilight
Moon
Length of Visible Light
Length of Day
Tomorrow will be .
, % of the Moon is Illuminated

Today's Extremes

State Highs State Lows

Community

WunderPhotos

Upload Photos

1,927,944 photos uploaded!

WunderBlog® & News

Nearby

Air Quality

  Air Quality AQ Index Pollutant
Not available.

Snow Depth

Station Depth Elevation

Earthquake Activity

City Distance Mag. Time & Date
Minimum magnitude displayed is 2.5.

Coastal Water Temperatures

Place Temperature

Stations

Nearby Weather Stations

Station Location Temp. Windchill Dew Point Humidity Wind Precip. Elev Updated Type
                   

Watches & Warnings

There are currently no watches in effect.